CheckWX is a tool to help pilots better visualize weather data.  It is not intended as a substitute for an official pre-flight weather briefing.

06:10:04 UTC

KLCK METAR
Rickenbacker International Airport
Columbus, Ohio, USA
Current

15 mins ago

KLCK 140555Z AUTO 06005KT 10SM CLR 19/15 A3001 RMK AO2 T01870152 10345 21110 403451110
Observed
Jul-14 @ 05:55 UTC
Wind
  • 060° at 5 KTS
Visibility
10 SM
Flight Rules
VFR
Cloud Levels
  • Clear skies
Dewpoint
15°C / 59°F
Humidity
78%
Altimeter
30.01" Hg
Pressure
1016.22 hPa
Previous

1 hour ago

KLCK 140455Z AUTO 05003KT 10SM SCT070 20/16 A3001 RMK AO2 T01960156
Observed
Jul-14 @ 04:55 UTC
Wind
  • 050° at 3 KTS
Visibility
10 SM
Flight Rules
VFR
Cloud Levels
  • Scattered at 7,000' AGL
Temperature
20°C / 68°F
Dewpoint
16°C / 61°F
Humidity
78%
Altimeter
30.01" Hg
Pressure
1016.22 hPa
Previous

2 hours ago

KLCK 140355Z AUTO 04004KT 10SM SCT060 21/16 A3000 RMK AO2 T02050157
Observed
Jul-14 @ 03:55 UTC
Wind
  • 040° at 4 KTS
Visibility
10 SM
Flight Rules
VFR
Cloud Levels
  • Scattered at 6,000' AGL
Temperature
20°C / 68°F
Dewpoint
16°C / 61°F
Humidity
78%
Altimeter
30" Hg
Pressure
1015.92 hPa